Time;durP1;ratioP1;P1;durP2;ratioP2;P2;SDS_P1;SDS_P2;PMS_P1;PMS_P2;Temp;Humidity;BMP_temperature;BMP_pressure;BME280_temperature;BME280_humidity;BME280_pressure;Samples;Min_cycle;Max_cycle;Signal;HPM_P1;HPM_P2
2022/01/30 00:00:19;;;;;;;17.17;2.10;;;;;;;8.05;100.00;97610.09;5024285;28;20119;-78
2022/01/30 00:02:45;;;;;;;13.90;1.83;;;;;;;8.11;100.00;97622.34;5024391;28;20433;-78
2022/01/30 00:05:12;;;;;;;10.02;1.80;;;;;;;8.01;100.00;97612.56;5040449;28;20056;-78
2022/01/30 00:07:38;;;;;;;14.60;2.00;;;;;;;8.07;100.00;97570.94;5044117;28;20508;-78
2022/01/30 00:10:10;;;;;;;14.85;1.88;;;;;;;8.07;100.00;97592.50;5044798;28;20060;-77
2022/01/30 00:12:46;;;;;;;14.38;2.35;;;;;;;8.07;100.00;97602.50;5042985;28;20045;-78
2022/01/30 00:15:14;;;;;;;22.35;2.33;;;;;;;8.05;100.00;97583.91;5042508;28;20099;-78
2022/01/30 00:17:48;;;;;;;12.70;1.75;;;;;;;7.95;100.00;97586.81;5045973;28;20099;-78
2022/01/30 00:20:21;;;;;;;12.38;1.90;;;;;;;8.02;100.00;97583.72;5047912;28;20130;-78
2022/01/30 00:25:17;;;;;;;12.10;1.83;;;;;;;7.92;100.00;97595.47;5046808;28;20132;-77
2022/01/30 00:28:01;;;;;;;10.10;1.73;;;;;;;7.85;100.00;97587.00;5047725;28;20084;-78
2022/01/30 00:30:33;;;;;;;13.40;1.70;;;;;;;7.85;100.00;97602.34;5046996;28;20474;-79
2022/01/30 00:33:01;;;;;;;11.50;1.88;;;;;;;7.85;100.00;97573.53;5045941;28;20049;-78
2022/01/30 00:35:38;;;;;;;13.73;1.80;;;;;;;7.81;100.00;97582.50;5046476;28;20057;-78
2022/01/30 00:38:15;;;;;;;14.13;2.47;;;;;;;7.86;100.00;97587.81;5046889;28;20487;-78
2022/01/30 00:40:43;;;;;;;13.35;1.65;;;;;;;7.75;100.00;97568.31;5047163;28;20411;-78
2022/01/30 00:43:10;;;;;;;14.27;1.63;;;;;;;7.61;100.00;97581.00;5046642;28;20056;-77
2022/01/30 00:45:37;;;;;;;10.55;2.00;;;;;;;7.55;100.00;97587.56;5046264;28;20099;-78
2022/01/30 00:48:05;;;;;;;11.75;1.60;;;;;;;7.73;100.00;97593.97;5045636;28;20057;-78
2022/01/30 00:50:32;;;;;;;7.85;1.45;;;;;;;7.77;100.00;97605.78;5047233;28;20057;-78
2022/01/30 00:53:00;;;;;;;12.20;1.80;;;;;;;7.76;100.00;97604.16;5046814;28;20060;-79
2022/01/30 00:55:28;;;;;;;12.57;1.40;;;;;;;7.72;100.00;97589.66;5046113;28;20045;-78
2022/01/30 00:57:56;;;;;;;14.23;2.25;;;;;;;7.61;100.00;97612.50;5046339;28;20432;-78
2022/01/30 01:00:24;;;;;;;13.45;1.60;;;;;;;7.37;100.00;97620.72;5045995;28;20056;-78
2022/01/30 01:02:51;;;;;;;14.30;1.80;;;;;;;7.16;100.00;97639.09;5045492;28;20059;-77
2022/01/30 01:05:19;;;;;;;12.43;1.77;;;;;;;6.97;100.00;97629.44;5046853;28;20145;-78
2022/01/30 01:07:48;;;;;;;15.90;2.10;;;;;;;6.80;100.00;97636.13;5047339;28;20523;-78
2022/01/30 01:23:51;;;;;;;16.07;2.00;;;;;;;6.04;100.00;97648.91;5056652;28;20125;-80
2022/01/30 01:26:19;;;;;;;13.98;1.50;;;;;;;5.92;100.00;97654.66;5055415;28;20083;-78
2022/01/30 01:28:46;;;;;;;13.95;1.70;;;;;;;5.85;100.00;97667.63;5073121;28;20144;-78
2022/01/30 01:31:14;;;;;;;11.80;1.77;;;;;;;5.76;100.00;97663.09;5072475;28;20057;-78
2022/01/30 01:36:16;;;;;;;11.93;1.40;;;;;;;5.86;100.00;97663.06;5050384;28;20048;-78
2022/01/30 01:38:44;;;;;;;13.73;1.80;;;;;;;5.97;100.00;97678.78;5053652;28;20108;-79
2022/01/30 01:41:11;;;;;;;9.40;1.17;;;;;;;6.01;100.00;97679.03;5052078;28;20049;-78
2022/01/30 01:43:38;;;;;;;11.32;1.40;;;;;;;6.15;100.00;97672.69;5050086;28;20061;-78
2022/01/30 01:46:13;;;;;;;11.88;1.55;;;;;;;6.17;100.00;97677.75;5049810;28;20049;-79
2022/01/30 01:48:41;;;;;;;12.48;1.25;;;;;;;6.03;100.00;97668.78;5051163;28;20155;-78
2022/01/30 01:51:17;;;;;;;13.13;1.80;;;;;;;5.88;100.00;97677.00;5050524;28;20060;-78
2022/01/30 01:53:47;;;;;;;17.13;1.88;;;;;;;5.89;100.00;97670.53;5050922;28;20060;-79
2022/01/30 01:56:15;;;;;;;13.45;1.38;;;;;;;5.89;100.00;97668.63;5049218;28;20049;-80
2022/01/30 01:58:42;;;;;;;11.85;1.42;;;;;;;5.86;100.00;97676.47;5051087;28;20084;-79
2022/01/30 02:01:09;;;;;;;15.27;1.73;;;;;;;5.76;100.00;97677.31;5049695;28;20057;-78
2022/01/30 02:03:40;;;;;;;18.80;1.80;;;;;;;5.83;100.00;97695.81;5047434;28;20069;-78
2022/01/30 02:06:10;;;;;;;12.55;1.58;;;;;;;5.70;100.00;97686.53;5049074;28;20048;-78
2022/01/30 02:08:48;;;;;;;12.68;1.60;;;;;;;5.65;100.00;97700.00;5049477;28;20045;-78
2022/01/30 02:27:55;;;;;;;17.15;2.40;;;;;;;5.71;100.00;97671.19;5050774;28;20607;-78
2022/01/30 02:30:22;;;;;;;18.00;2.15;;;;;;;5.66;100.00;97655.94;5047390;28;20459;-78
2022/01/30 02:32:50;;;;;;;21.75;2.67;;;;;;;5.59;100.00;97650.91;5049575;28;20080;-79
2022/01/30 02:35:17;;;;;;;28.52;2.90;;;;;;;5.62;100.00;97658.41;5049272;28;20044;-78
2022/01/30 02:37:43;;;;;;;12.50;2.25;;;;;;;5.50;100.00;97643.72;5048334;28;20049;-77
2022/01/30 02:40:12;;;;;;;23.27;2.38;;;;;;;5.60;100.00;97659.78;5050297;28;20048;-78
2022/01/30 02:42:45;;;;;;;23.00;2.90;;;;;;;5.57;100.00;97646.91;5055486;28;20055;-78
2022/01/30 02:45:14;;;;;;;15.98;2.60;;;;;;;5.68;100.00;97659.94;5051494;28;20060;-77
2022/01/30 02:47:56;;;;;;;26.77;2.53;;;;;;;5.56;100.00;97646.09;5050798;28;20049;-78
2022/01/30 02:50:35;;;;;;;21.48;2.50;;;;;;;5.70;100.00;97643.56;5054501;28;20078;-78
2022/01/30 02:53:05;;;;;;;23.25;2.40;;;;;;;5.73;100.00;97615.34;5068321;28;20052;-77
2022/01/30 02:55:32;;;;;;;17.95;2.58;;;;;;;5.65;100.00;97608.69;5068325;28;20056;-79
2022/01/30 02:57:59;;;;;;;22.17;2.92;;;;;;;5.70;100.00;97608.66;5069013;28;20052;-79
2022/01/30 03:00:26;;;;;;;17.38;2.30;;;;;;;5.64;100.00;97607.09;5068002;28;20102;-78
2022/01/30 03:02:53;;;;;;;21.02;2.53;;;;;;;5.75;100.00;97605.91;5067711;28;20048;-78
2022/01/30 03:05:19;;;;;;;17.17;2.03;;;;;;;5.62;100.00;97583.22;5068035;28;20542;-79
2022/01/30 03:07:47;;;;;;;16.20;1.73;;;;;;;5.58;100.00;97587.53;5068722;28;20166;-78
2022/01/30 03:10:14;;;;;;;16.52;2.20;;;;;;;5.72;100.00;97595.72;5068485;28;20049;-78
2022/01/30 03:12:41;;;;;;;17.73;2.22;;;;;;;5.66;100.00;97600.34;5068621;28;20045;-78
2022/01/30 03:15:08;;;;;;;22.88;2.80;;;;;;;5.71;100.00;97585.25;5066855;28;20118;-77
2022/01/30 03:17:35;;;;;;;19.27;2.30;;;;;;;5.63;100.00;97608.16;5068196;28;20086;-78
2022/01/30 03:20:03;;;;;;;24.05;2.80;;;;;;;5.70;100.00;97592.53;5069856;28;20488;-78
2022/01/30 03:22:30;;;;;;;17.23;2.00;;;;;;;5.64;100.00;97607.91;5069603;28;20059;-78
2022/01/30 03:24:57;;;;;;;24.50;2.30;;;;;;;5.74;100.00;97606.97;5069351;28;20109;-78
2022/01/30 03:27:24;;;;;;;19.52;2.25;;;;;;;5.74;100.00;97604.31;5071589;28;20048;-79
2022/01/30 03:30:02;;;;;;;16.45;2.38;;;;;;;5.85;100.00;97596.97;5051568;28;20126;-78
2022/01/30 03:32:30;;;;;;;18.45;1.98;;;;;;;5.85;100.00;97605.84;5044402;28;20131;-78
2022/01/30 03:34:56;;;;;;;15.65;2.20;;;;;;;5.87;100.00;97613.59;5030661;28;20061;-77
2022/01/30 03:37:45;;;;;;;22.33;2.47;;;;;;;5.86;100.00;97615.47;5038956;28;20053;-79
2022/01/30 03:40:12;;;;;;;25.10;2.17;;;;;;;5.73;100.00;97618.03;5034619;28;20045;-78
2022/01/30 03:42:39;;;;;;;19.40;2.65;;;;;;;5.75;100.00;97607.78;5031293;28;20388;-77
2022/01/30 03:45:07;;;;;;;17.05;2.00;;;;;;;5.87;100.00;97606.34;5027108;28;20046;-78
2022/01/30 03:47:37;;;;;;;19.25;2.33;;;;;;;5.85;100.00;97630.00;5026936;28;20061;-77
2022/01/30 03:53:42;;;;;;;;;;;;;;;5.72;100.00;97635.22;5029660;28;20049;-78
2022/01/30 03:56:09;;;;;;;16.55;1.90;;;;;;;5.57;100.00;97622.75;5032013;28;19932;-80
2022/01/30 03:58:37;;;;;;;17.63;2.20;;;;;;;5.65;100.00;97614.06;5032513;28;20081;-77
2022/01/30 04:01:05;;;;;;;19.17;2.35;;;;;;;5.48;100.00;97619.03;5030328;28;20083;-78
2022/01/30 04:03:32;;;;;;;19.35;2.00;;;;;;;5.46;100.00;97591.69;5031215;28;20103;-76
2022/01/30 04:05:59;;;;;;;15.52;2.03;;;;;;;5.50;100.00;97608.81;5030777;28;20101;-77
2022/01/30 04:08:27;;;;;;;18.77;1.98;;;;;;;5.55;100.00;97580.03;5031226;28;20159;-78
2022/01/30 04:10:55;;;;;;;21.27;2.58;;;;;;;5.42;100.00;97596.03;5029463;28;20061;-78
2022/01/30 04:13:22;;;;;;;22.20;2.13;;;;;;;5.47;100.00;97609.41;5031039;28;20650;-77
2022/01/30 04:15:50;;;;;;;21.13;3.15;;;;;;;5.56;100.00;97621.94;5030850;28;20081;-79
2022/01/30 04:18:17;;;;;;;20.92;2.75;;;;;;;5.44;100.00;97620.72;5028514;28;20056;-79
2022/01/30 04:20:59;;;;;;;10.55;1.83;;;;;;;5.47;100.00;97614.78;5031714;28;20353;-78
2022/01/30 04:23:30;;;;;;;9.25;1.95;;;;;;;5.61;100.00;97626.44;5030993;28;20045;-78
2022/01/30 04:25:57;;;;;;;13.68;1.92;;;;;;;5.58;100.00;97638.56;5030512;28;20045;-76
2022/01/30 04:28:24;;;;;;;15.88;2.50;;;;;;;5.64;100.00;97631.25;5031284;28;20126;-79
2022/01/30 04:30:52;;;;;;;19.85;2.30;;;;;;;5.74;100.00;97652.66;5031278;28;20107;-76
2022/01/30 04:33:19;;;;;;;15.15;2.15;;;;;;;5.68;100.00;97667.19;5030141;28;20140;-79
2022/01/30 04:35:46;;;;;;;14.57;1.92;;;;;;;5.77;100.00;97668.19;5031243;28;20497;-78
2022/01/30 04:38:22;;;;;;;18.13;2.42;;;;;;;5.69;100.00;97671.50;5030549;28;20162;-79
2022/01/30 05:00:03;;;;;;;18.63;2.25;;;;;;;5.68;100.00;97629.59;5037811;28;20078;-78
2022/01/30 05:07:52;;;;;;;15.15;2.17;;;;;;;5.70;100.00;97651.63;5030519;28;20046;-79
2022/01/30 05:10:19;;;;;;;15.20;2.38;;;;;;;5.79;100.00;97644.53;5030957;28;20061;-79
2022/01/30 05:12:53;;;;;;;14.52;2.10;;;;;;;5.76;100.00;97653.16;5029672;28;20111;-78
2022/01/30 05:15:21;;;;;;;16.13;1.73;;;;;;;5.81;100.00;97645.03;5028184;28;20500;-79
2022/01/30 05:17:49;;;;;;;21.38;1.60;;;;;;;5.76;100.00;97677.31;5029069;28;20081;-78
2022/01/30 05:20:16;;;;;;;12.85;1.92;;;;;;;5.77;100.00;97651.28;5030939;28;20088;-79
2022/01/30 05:22:46;;;;;;;21.40;2.33;;;;;;;5.93;100.00;97650.06;5030795;28;20095;-78
2022/01/30 05:25:14;;;;;;;16.73;2.10;;;;;;;5.75;100.00;97658.81;5030366;28;20152;-78
2022/01/30 05:27:41;;;;;;;20.33;2.95;;;;;;;5.81;100.00;97642.34;5033031;28;20045;-78
2022/01/30 05:30:09;;;;;;;14.02;2.15;;;;;;;5.68;100.00;97644.94;5033326;28;20064;-80
2022/01/30 05:32:36;;;;;;;11.68;1.75;;;;;;;5.68;100.00;97606.22;5036384;28;20048;-79
2022/01/30 05:35:06;;;;;;;13.30;1.70;;;;;;;5.65;100.00;97608.69;5051765;28;20120;-77
2022/01/30 05:37:42;;;;;;;9.52;1.67;;;;;;;5.69;100.00;97628.53;5030536;28;20049;-77
2022/01/30 05:40:11;;;;;;;12.82;1.58;;;;;;;5.76;100.00;97615.56;5047917;28;20087;-77
2022/01/30 05:42:39;;;;;;;15.30;2.03;;;;;;;5.76;100.00;97641.59;5049929;28;20060;-78
2022/01/30 05:48:14;;;;;;;12.23;2.20;;;;;;;5.80;100.00;97611.22;5047825;28;20077;-77
2022/01/30 05:50:43;;;;;;;16.90;1.85;;;;;;;5.72;100.00;97625.28;5041437;28;20122;-76
2022/01/30 05:53:15;;;;;;;16.35;1.95;;;;;;;5.64;100.00;97633.94;5037817;28;20041;-76
2022/01/30 05:55:43;;;;;;;16.25;2.53;;;;;;;5.67;100.00;97601.16;5042126;28;20425;-77
2022/01/30 05:58:10;;;;;;;19.70;2.45;;;;;;;5.80;100.00;97613.09;5046825;28;20144;-78
2022/01/30 06:00:48;;;;;;;13.75;1.83;;;;;;;5.76;100.00;97604.81;5029522;28;20262;-77
2022/01/30 06:03:17;;;;;;;14.18;1.88;;;;;;;5.68;100.00;97618.06;5030823;28;20045;-78
2022/01/30 06:05:48;;;;;;;17.67;1.63;;;;;;;5.64;100.00;97637.44;5046426;28;20139;-78
2022/01/30 06:08:39;;;;;;;16.80;1.88;;;;;;;5.48;100.00;97637.84;5061927;28;20068;-79
2022/01/30 06:11:07;;;;;;;15.05;1.88;;;;;;;5.50;100.00;97631.09;5071419;28;20058;-78
2022/01/30 06:13:34;;;;;;;20.20;1.90;;;;;;;5.40;100.00;97641.94;5070513;28;20110;-78
2022/01/30 06:16:04;;;;;;;18.80;2.22;;;;;;;5.37;100.00;97631.75;5069144;28;20060;-78
2022/01/30 06:18:32;;;;;;;25.27;2.33;;;;;;;5.30;100.00;97641.22;5060928;28;20062;-77
2022/01/30 06:21:01;;;;;;;24.48;2.53;;;;;;;5.25;100.00;97652.78;5029343;28;20153;-79
2022/01/30 06:23:28;;;;;;;19.33;2.40;;;;;;;5.26;100.00;97637.50;5029150;28;20049;-78
2022/01/30 06:25:56;;;;;;;19.98;2.10;;;;;;;5.24;100.00;97655.78;5030310;28;20049;-79
2022/01/30 06:28:23;;;;;;;20.45;2.70;;;;;;;5.32;100.00;97623.75;5030187;28;20184;-79
2022/01/30 06:30:51;;;;;;;14.70;1.77;;;;;;;5.39;100.00;97652.97;5030528;28;20064;-79
2022/01/30 06:33:19;;;;;;;17.00;2.35;;;;;;;5.30;100.00;97623.22;5029280;28;20049;-79
2022/01/30 06:35:47;;;;;;;17.00;2.10;;;;;;;5.48;100.00;97670.06;5029377;28;20046;-77
2022/01/30 06:38:14;;;;;;;12.65;2.45;;;;;;;5.46;100.00;97658.81;5029998;28;20079;-78
2022/01/30 06:40:42;;;;;;;15.20;1.90;;;;;;;5.45;100.00;97666.03;5048161;28;20056;-77
2022/01/30 06:43:09;;;;;;;17.92;2.08;;;;;;;5.46;100.00;97670.34;5069244;28;20056;-78
2022/01/30 06:45:37;;;;;;;11.05;1.80;;;;;;;5.43;100.00;97664.72;5062994;28;20452;-77
2022/01/30 06:48:04;;;;;;;13.77;1.92;;;;;;;5.39;100.00;97696.72;5063219;28;20059;-77
2022/01/30 06:50:32;;;;;;;18.88;2.85;;;;;;;5.49;100.00;97701.19;5069478;28;20044;-78
2022/01/30 06:53:02;;;;;;;12.95;1.90;;;;;;;5.48;100.00;97700.41;5068077;28;20045;-78
2022/01/30 06:55:42;;;;;;;14.15;1.67;;;;;;;5.56;100.00;97709.72;5068658;28;20045;-78
2022/01/30 06:58:09;;;;;;;12.13;2.08;;;;;;;5.45;100.00;97695.56;5068498;28;20052;-77
2022/01/30 07:00:41;;;;;;;12.73;2.00;;;;;;;5.48;100.00;97711.13;5067453;28;20584;-78
2022/01/30 07:03:08;;;;;;;10.20;1.92;;;;;;;5.40;100.00;97705.56;5068447;28;20040;-77
2022/01/30 07:05:43;;;;;;;15.23;2.00;;;;;;;5.46;100.00;97702.56;5062225;28;20136;-78
2022/01/30 07:08:12;;;;;;;21.30;2.30;;;;;;;5.32;100.00;97706.94;5064892;28;20056;-77
2022/01/30 07:10:41;;;;;;;22.52;2.60;;;;;;;5.31;100.00;97697.31;5057493;28;20059;-78
2022/01/30 07:13:14;;;;;;;17.73;2.13;;;;;;;5.39;100.00;97706.66;5055212;28;20043;-78
2022/01/30 07:15:41;;;;;;;14.77;2.08;;;;;;;5.40;100.00;97706.34;5053277;28;20080;-78
2022/01/30 07:18:10;;;;;;;18.00;2.92;;;;;;;5.49;100.00;97744.16;5055945;28;20113;-79
2022/01/30 07:20:37;;;;;;;10.73;1.85;;;;;;;5.46;100.00;97726.72;5054354;28;20157;-78
2022/01/30 07:23:04;;;;;;;13.63;1.70;;;;;;;5.57;100.00;97741.66;5054011;28;20049;-78
2022/01/30 07:25:32;;;;;;;13.15;1.77;;;;;;;5.59;100.00;97736.84;5055299;28;20381;-76
2022/01/30 07:28:00;;;;;;;14.30;1.67;;;;;;;5.40;100.00;97754.69;5060845;28;20057;-78
2022/01/30 07:30:29;;;;;;;14.57;2.10;;;;;;;5.40;100.00;97764.59;5058695;28;20053;-79
2022/01/30 07:32:57;;;;;;;16.48;1.42;;;;;;;5.36;100.00;97761.69;5059243;28;20044;-77
2022/01/30 07:35:24;;;;;;;24.00;2.83;;;;;;;5.34;100.00;97760.38;5057805;28;20064;-76
2022/01/30 07:37:54;;;;;;;21.80;2.47;;;;;;;5.41;100.00;97755.47;5057803;28;20052;-78
2022/01/30 07:40:22;;;;;;;14.70;1.98;;;;;;;5.40;100.00;97776.16;5058722;28;20132;-78
2022/01/30 07:42:51;;;;;;;16.65;2.30;;;;;;;5.37;100.00;97765.97;5059515;28;20060;-77
2022/01/30 07:45:24;;;;;;;18.02;2.65;;;;;;;5.37;100.00;97773.22;5059783;28;20056;-78
2022/01/30 07:47:51;;;;;;;16.88;2.10;;;;;;;5.39;100.00;97768.38;5064750;28;20072;-78
2022/01/30 07:50:19;;;;;;;20.60;2.05;;;;;;;5.51;100.00;97777.69;5065673;28;20081;-77
2022/01/30 07:52:46;;;;;;;19.67;2.20;;;;;;;5.48;100.00;97782.81;5061017;28;20049;-79
2022/01/30 07:55:13;;;;;;;20.58;2.33;;;;;;;5.45;100.00;97792.22;5060223;28;20068;-77
2022/01/30 07:57:39;;;;;;;18.55;2.40;;;;;;;5.48;100.00;97793.56;5059662;28;20052;-77
2022/01/30 08:00:07;;;;;;;14.55;2.00;;;;;;;5.54;100.00;97801.31;5059414;28;20045;-76
2022/01/30 08:02:34;;;;;;;21.83;2.67;;;;;;;5.60;100.00;97821.66;5056993;28;20048;-77
2022/01/30 08:05:01;;;;;;;16.60;2.20;;;;;;;5.31;100.00;97809.22;5061513;28;20041;-78
2022/01/30 08:07:27;;;;;;;18.88;2.20;;;;;;;5.41;100.00;97806.50;5060609;28;20056;-76
2022/01/30 08:13:35;;;;;;;12.65;2.50;;;;;;;5.56;100.00;97838.63;5054552;28;20405;-80
2022/01/30 08:16:02;;;;;;;16.70;2.50;;;;;;;5.42;100.00;97826.91;5054531;28;20404;-78
2022/01/30 08:18:33;;;;;;;17.77;2.30;;;;;;;5.58;100.00;97829.19;5055443;28;20053;-78
2022/01/30 08:21:00;;;;;;;18.80;2.88;;;;;;;5.61;100.00;97830.53;5070414;28;20136;-78
2022/01/30 08:23:29;;;;;;;19.95;2.85;;;;;;;5.65;100.00;97818.16;5069848;28;20060;-78
2022/01/30 08:25:58;;;;;;;17.27;2.60;;;;;;;5.62;100.00;97830.28;5059934;28;20087;-79
2022/01/30 08:28:26;;;;;;;18.25;2.20;;;;;;;5.57;100.00;97837.56;5057582;28;20152;-78
2022/01/30 08:30:58;;;;;;;17.85;3.20;;;;;;;5.59;100.00;97841.56;5048748;28;20106;-80
2022/01/30 08:33:26;;;;;;;27.58;3.13;;;;;;;5.76;100.00;97851.09;5070393;28;20053;-78
2022/01/30 08:35:53;;;;;;;19.50;2.88;;;;;;;5.58;100.00;97844.50;5055417;28;20142;-78
2022/01/30 08:38:21;;;;;;;24.83;2.72;;;;;;;5.46;100.00;97863.66;5054385;28;20513;-78
2022/01/30 08:40:49;;;;;;;17.10;2.40;;;;;;;5.42;100.00;97861.78;5054061;28;20064;-78
2022/01/30 08:43:21;;;;;;;21.20;2.83;;;;;;;5.53;100.00;97850.72;5052827;28;20053;-78
2022/01/30 08:45:51;;;;;;;18.38;2.42;;;;;;;5.72;100.00;97867.00;5053971;28;20098;-78
2022/01/30 08:48:20;;;;;;;16.40;2.65;;;;;;;5.55;100.00;97863.84;5053551;28;20048;-78
2022/01/30 08:50:51;;;;;;;19.52;2.65;;;;;;;5.53;100.00;97879.44;5054527;28;20125;-78
2022/01/30 08:53:20;;;;;;;21.10;3.13;;;;;;;5.57;100.00;97883.97;5053481;28;20057;-78
2022/01/30 08:55:49;;;;;;;19.25;3.42;;;;;;;5.48;100.00;97896.38;5052257;28;20234;-79
2022/01/30 08:58:17;;;;;;;17.63;2.53;;;;;;;5.45;100.00;97880.81;5052418;28;20092;-79
2022/01/30 09:00:46;;;;;;;23.27;3.17;;;;;;;5.43;100.00;97892.91;5052755;28;20045;-78
2022/01/30 09:03:15;;;;;;;16.48;2.17;;;;;;;5.45;100.00;97898.81;5053881;28;20139;-79
2022/01/30 09:05:43;;;;;;;27.20;4.05;;;;;;;5.50;100.00;97912.22;5054993;28;20041;-77
2022/01/30 09:08:13;;;;;;;18.33;2.53;;;;;;;5.48;100.00;97915.19;5052555;28;20071;-78
2022/01/30 09:10:41;;;;;;;23.48;3.20;;;;;;;5.38;100.00;97915.22;5054710;28;20515;-79
2022/01/30 09:13:10;;;;;;;16.33;2.70;;;;;;;5.46;100.00;97913.84;5058071;28;20057;-78
2022/01/30 09:15:42;;;;;;;25.38;2.58;;;;;;;5.40;100.00;97913.06;5058035;28;20057;-78
2022/01/30 09:18:11;;;;;;;28.55;4.45;;;;;;;5.43;100.00;97917.06;5053286;28;20048;-77
2022/01/30 09:20:43;;;;;;;25.67;3.30;;;;;;;5.32;100.00;97920.88;5056724;28;20136;-78
2022/01/30 09:23:13;;;;;;;32.63;3.65;;;;;;;5.45;100.00;97929.16;5052684;28;20053;-77
2022/01/30 09:25:46;;;;;;;30.25;3.42;;;;;;;5.40;100.00;97929.16;5052135;28;20049;-77
2022/01/30 09:28:18;;;;;;;21.05;3.20;;;;;;;5.37;100.00;97918.16;5051619;28;20099;-77
2022/01/30 09:30:46;;;;;;;28.10;4.50;;;;;;;5.38;100.00;97914.41;5050585;28;20487;-77
2022/01/30 09:33:14;;;;;;;21.80;3.75;;;;;;;5.45;100.00;97934.50;5052123;28;20057;-78
2022/01/30 09:35:42;;;;;;;24.33;3.33;;;;;;;5.47;100.00;97943.09;5054803;28;20083;-78
2022/01/30 09:38:13;;;;;;;29.48;3.70;;;;;;;5.55;100.00;97947.09;5052838;28;20148;-78
2022/01/30 09:40:41;;;;;;;19.45;3.25;;;;;;;5.47;100.00;97936.94;5051382;28;20052;-79
2022/01/30 09:43:10;;;;;;;19.63;3.05;;;;;;;5.42;100.00;97947.69;5053186;28;20139;-77
2022/01/30 09:45:38;;;;;;;21.33;3.13;;;;;;;5.47;100.00;97969.16;5051413;28;20136;-78
2022/01/30 09:48:08;;;;;;;14.45;2.53;;;;;;;5.44;100.00;97956.28;5050104;28;20688;-77
2022/01/30 09:50:36;;;;;;;32.13;4.93;;;;;;;5.33;100.00;97947.44;5050943;28;20068;-77
2022/01/30 09:53:06;;;;;;;27.95;3.22;;;;;;;5.45;100.00;97957.88;5050806;28;20052;-77
2022/01/30 09:55:33;;;;;;;26.92;3.67;;;;;;;5.39;100.00;97945.56;5049696;28;20414;-77
2022/01/30 09:58:01;;;;;;;22.33;3.33;;;;;;;5.48;100.00;97958.13;5049860;28;20052;-77
2022/01/30 10:00:35;;;;;;;31.83;4.03;;;;;;;5.35;100.00;97964.09;5049404;28;20053;-78
2022/01/30 10:03:02;;;;;;;40.55;4.35;;;;;;;5.38;100.00;97950.13;5047298;28;20071;-77
2022/01/30 10:05:34;;;;;;;32.42;3.80;;;;;;;5.35;100.00;97965.97;5049198;28;20056;-78
2022/01/30 10:08:03;;;;;;;26.10;3.40;;;;;;;5.49;100.00;97959.75;5049747;28;20103;-76
2022/01/30 10:10:30;;;;;;;30.85;3.63;;;;;;;5.53;100.00;97978.78;5049198;28;20068;-77
2022/01/30 10:13:11;;;;;;;30.58;4.07;;;;;;;5.68;100.00;97977.94;5049650;28;20457;-76
2022/01/30 10:15:56;;;;;;;21.70;3.35;;;;;;;5.64;100.00;97991.09;5048324;28;20076;-77
2022/01/30 10:18:32;;;;;;;29.15;3.85;;;;;;;5.59;100.00;97991.13;5048984;28;20120;-78
2022/01/30 10:21:05;;;;;;;32.08;3.90;;;;;;;5.64;100.00;97988.44;5049771;28;20053;-77
2022/01/30 10:23:34;;;;;;;30.85;3.78;;;;;;;5.41;100.00;97997.09;5049815;28;20385;-77
2022/01/30 10:26:08;;;;;;;29.50;3.70;;;;;;;5.43;100.00;97974.25;5049745;28;20414;-77
2022/01/30 10:28:40;;;;;;;25.98;3.85;;;;;;;5.47;100.00;97978.00;5048935;28;20052;-76
2022/01/30 10:31:12;;;;;;;26.70;3.88;;;;;;;5.55;100.00;98008.84;5049256;28;20114;-77
2022/01/30 10:33:53;;;;;;;28.90;3.75;;;;;;;5.41;100.00;97981.78;5049184;28;20060;-77
2022/01/30 10:36:37;;;;;;;30.52;3.90;;;;;;;5.42;100.00;97979.91;5050556;28;20533;-78
2022/01/30 10:39:31;;;;;;;34.63;4.75;;;;;;;5.67;100.00;97977.13;5035985;28;20479;-77
2022/01/30 10:41:59;;;;;;;23.27;3.80;;;;;;;5.46;100.00;97964.84;5031661;28;20057;-77
2022/01/30 10:44:55;;;;;;;;;;;;;;;5.55;100.00;97968.56;5038442;28;20160;-75
2022/01/30 10:47:23;;;;;;;33.72;3.72;;;;;;;5.79;100.00;97953.44;5040847;28;20002;-76
2022/01/30 10:49:51;;;;;;;27.52;3.50;;;;;;;5.97;100.00;97960.91;5044086;28;20574;-77
2022/01/30 10:52:19;;;;;;;35.17;3.78;;;;;;;6.66;98.56;97955.31;5037836;28;20076;-77
2022/01/30 10:55:02;;;;;;;30.75;4.63;;;;;;;6.48;100.00;97966.75;5045827;28;20045;-77
2022/01/30 10:57:40;;;;;;;32.75;4.15;;;;;;;6.33;100.00;97958.00;5045778;28;20140;-77
2022/01/30 11:00:11;;;;;;;23.55;3.40;;;;;;;6.15;100.00;97979.06;5045112;28;20222;-76
2022/01/30 11:02:43;;;;;;;22.35;3.63;;;;;;;6.31;100.00;97971.72;5045841;28;20048;-76
2022/01/30 11:05:16;;;;;;;27.10;4.03;;;;;;;6.06;100.00;97972.69;5047596;28;20144;-77
2022/01/30 11:07:45;;;;;;;28.52;3.70;;;;;;;6.17;100.00;97990.34;5046052;28;20099;-76
2022/01/30 11:10:24;;;;;;;21.73;3.10;;;;;;;5.93;100.00;97980.53;5042739;28;20052;-77
2022/01/30 11:13:09;;;;;;;26.77;3.72;;;;;;;6.37;100.00;97975.19;5045908;28;20173;-77
2022/01/30 11:15:43;;;;;;;32.17;4.10;;;;;;;6.21;96.41;97979.84;5044559;28;20044;-77
2022/01/30 11:18:13;;;;;;;33.20;4.47;;;;;;;6.11;95.29;97979.91;5039918;28;20079;-77
2022/01/30 11:20:46;;;;;;;23.80;3.72;;;;;;;6.39;97.34;97978.41;5045916;28;20056;-77
2022/01/30 11:23:16;;;;;;;26.73;3.70;;;;;;;6.30;95.99;97994.31;5035225;28;20045;-78
2022/01/30 11:25:44;;;;;;;22.58;3.65;;;;;;;6.35;91.99;97993.50;5081039;23;20084;-81
2022/01/30 11:28:24;;;;;;;27.70;3.42;;;;;;;6.26;92.60;97995.94;5019952;28;20046;-81
2022/01/30 11:31:20;;;;;;;26.77;3.33;;;;;;;6.04;93.23;97968.69;5014153;28;20129;-82
2022/01/30 11:34:21;;;;;;;25.73;4.13;;;;;;;5.86;91.24;97996.94;5016277;28;20468;-83
2022/01/30 11:36:50;;;;;;;26.35;4.57;;;;;;;6.03;92.99;97986.69;5009457;28;20153;-82
2022/01/30 11:39:23;;;;;;;30.40;3.60;;;;;;;6.13;90.24;97980.44;5005250;28;20054;-81
2022/01/30 11:42:18;;;;;;;34.58;4.15;;;;;;;6.31;92.53;97985.16;5024653;28;20049;-82
2022/01/30 11:44:49;;;;;;;26.33;4.18;;;;;;;6.21;87.53;97988.72;5008197;28;20064;-80
2022/01/30 11:47:58;;;;;;;25.80;3.78;;;;;;;6.17;92.94;97982.28;5009240;28;20054;-85
2022/01/30 11:50:31;;;;;;;38.67;6.03;;;;;;;6.33;91.00;97984.88;5020191;28;20057;-84
2022/01/30 11:53:06;;;;;;;33.13;4.55;;;;;;;6.00;96.00;97992.59;5019167;28;20045;-86
2022/01/30 11:55:50;;;;;;;37.97;4.38;;;;;;;6.14;99.11;97982.06;5018405;28;20056;-83
2022/01/30 11:58:42;;;;;;;26.27;4.32;;;;;;;6.15;97.10;97991.72;5039219;28;20069;-81
2022/01/30 12:01:34;;;;;;;38.40;5.30;;;;;;;6.26;91.47;98009.41;5021720;28;20058;-84
2022/01/30 12:04:51;;;;;;;36.80;4.80;;;;;;;6.03;87.68;98029.69;5020139;28;20148;-84
2022/01/30 12:08:02;;;;;;;28.80;4.20;;;;;;;6.00;85.86;98000.66;5019270;28;20321;-83
2022/01/30 12:11:17;;;;;;;33.80;4.18;;;;;;;6.03;89.96;98008.19;5017347;28;20065;-81
2022/01/30 12:14:12;;;;;;;41.15;5.43;;;;;;;6.28;87.84;98005.34;5029356;28;20042;-84
2022/01/30 12:17:18;;;;;;;30.17;4.32;;;;;;;6.10;85.92;97989.84;5023895;28;20053;-82
2022/01/30 12:20:10;;;;;;;22.67;3.80;;;;;;;6.36;83.62;98005.84;5024676;28;20050;-83
2022/01/30 12:22:58;;;;;;;34.90;4.70;;;;;;;6.26;79.97;98002.13;5025807;28;20049;-84
2022/01/30 12:26:09;;;;;;;23.65;3.88;;;;;;;6.28;79.93;98026.03;5032825;28;20093;-83
2022/01/30 12:28:46;;;;;;;35.95;4.55;;;;;;;6.19;78.27;98014.28;5017514;28;20149;-84
2022/01/30 12:31:39;;;;;;;32.67;4.00;;;;;;;6.13;80.53;98018.88;5020343;28;20057;-85
2022/01/30 12:34:25;;;;;;;30.02;4.20;;;;;;;6.11;82.30;98015.66;5021547;28;20053;-83
2022/01/30 12:36:54;;;;;;;31.23;4.35;;;;;;;6.11;86.44;98036.34;5021929;28;20050;-81
2022/01/30 12:39:23;;;;;;;35.60;4.80;;;;;;;5.97;89.29;98038.81;5021524;28;20054;-83
2022/01/30 12:41:52;;;;;;;39.35;4.57;;;;;;;5.92;91.62;98022.72;5024051;28;20046;-81
2022/01/30 12:44:30;;;;;;;34.17;3.92;;;;;;;5.75;95.10;98035.66;5036308;28;20061;-83
2022/01/30 12:47:11;;;;;;;35.38;4.30;;;;;;;5.85;95.28;98049.09;5023436;28;20490;-83
2022/01/30 12:49:52;;;;;;;34.83;4.63;;;;;;;5.84;93.64;98047.44;5016989;28;20418;-82
2022/01/30 12:52:46;;;;;;;39.60;4.40;;;;;;;5.99;95.92;98044.72;5021185;28;20169;-83
2022/01/30 12:55:17;;;;;;;29.70;4.57;;;;;;;5.91;94.32;98047.19;5031356;28;20073;-80
2022/01/30 12:57:47;;;;;;;29.42;4.35;;;;;;;5.85;94.00;98024.91;5025502;28;20279;-83